Time;durP1;ratioP1;P1;durP2;ratioP2;P2;SDS_P1;SDS_P2;PMS_P1;PMS_P2;Temp;Humidity;BMP_temperature;BMP_pressure;BME280_temperature;BME280_humidity;BME280_pressure;Samples;Min_cycle;Max_cycle;Signal;HPM_P1;HPM_P2
2022/09/21 00:01:22;;;;;;;8.40;4.90;;;7.20;56.00;;;;;;5060389;28;46339;-64
2022/09/21 00:03:56;;;;;;;8.20;4.87;;;7.10;56.10;;;;;;5062403;28;46481;-65
2022/09/21 00:06:23;;;;;;;8.90;4.87;;;7.10;56.30;;;;;;5059593;28;46451;-64
2022/09/21 00:08:50;;;;;;;9.20;5.30;;;7.10;56.60;;;;;;5061520;27;46461;-64
2022/09/21 00:11:23;;;;;;;11.13;5.00;;;7.00;56.60;;;;;;5074967;27;46250;-64
2022/09/21 00:13:53;;;;;;;8.07;4.10;;;7.00;56.60;;;;;;5062398;28;45761;-64
2022/09/21 00:16:20;;;;;;;8.90;4.53;;;6.90;56.90;;;;;;5060791;28;46494;-65
2022/09/21 00:18:46;;;;;;;10.13;4.80;;;6.90;57.10;;;;;;5073590;27;48237;-64
2022/09/21 00:21:14;;;;;;;8.27;5.33;;;6.80;57.10;;;;;;5061879;28;46416;-64
2022/09/21 00:23:40;;;;;;;8.83;4.40;;;6.80;57.30;;;;;;5061877;28;46345;-64
2022/09/21 00:26:18;;;;;;;8.40;4.70;;;6.70;57.60;;;;;;5054954;28;46413;-64
2022/09/21 00:28:44;;;;;;;9.57;4.60;;;6.70;57.90;;;;;;5054365;28;47082;-64
2022/09/21 00:31:14;;;;;;;8.30;5.00;;;6.60;57.70;;;;;;5058482;28;46444;-64
2022/09/21 00:33:42;;;;;;;6.57;4.13;;;6.60;57.80;;;;;;5057122;28;45766;-64
2022/09/21 00:36:16;;;;;;;7.20;4.77;;;6.60;57.80;;;;;;5064309;27;46578;-63
2022/09/21 00:38:42;;;;;;;7.67;4.77;;;6.50;57.90;;;;;;5055391;28;46362;-63
2022/09/21 00:41:09;;;;;;;8.07;4.30;;;6.50;58.00;;;;;;5070149;27;46399;-64
2022/09/21 00:43:37;;;;;;;12.03;3.77;;;6.50;58.10;;;;;;5068090;28;46289;-64
2022/09/21 00:46:12;;;;;;;7.87;4.50;;;6.40;58.00;;;;;;5054596;28;46285;-65
2022/09/21 00:48:39;;;;;;;6.10;4.07;;;6.40;58.10;;;;;;5064674;28;46463;-63
2022/09/21 00:51:07;;;;;;;9.23;3.90;;;6.40;58.30;;;;;;5058938;28;46436;-64
2022/09/21 00:53:34;;;;;;;10.93;5.43;;;6.30;58.40;;;;;;5062728;28;46323;-64
2022/09/21 00:56:01;;;;;;;6.50;3.40;;;6.30;58.50;;;;;;5060185;28;46335;-64
2022/09/21 00:58:35;;;;;;;6.33;3.20;;;6.20;58.60;;;;;;5061309;28;46501;-64
2022/09/21 01:01:00;;;;;;;7.63;3.30;;;6.20;58.70;;;;;;5065643;28;46648;-64
2022/09/21 01:03:28;;;;;;;8.90;3.20;;;6.00;58.70;;;;;;5064230;28;46352;-64
2022/09/21 01:05:55;;;;;;;4.60;3.07;;;6.00;58.80;;;;;;5071731;28;46326;-64
2022/09/21 01:08:22;;;;;;;6.20;4.03;;;5.90;59.10;;;;;;5066097;28;46288;-65
2022/09/21 01:10:59;;;;;;;6.70;3.70;;;5.80;59.30;;;;;;5063952;28;46338;-64
2022/09/21 01:14:09;;;;;;;6.10;3.90;;;5.80;59.30;;;;;;5065788;28;46572;-64
2022/09/21 01:16:47;;;;;;;20.13;3.57;;;5.70;59.40;;;;;;5065140;28;46496;-64
2022/09/21 01:19:28;;;;;;;5.23;3.53;;;5.70;59.40;;;;;;5065755;28;46387;-64
2022/09/21 01:22:15;;;;;;;5.97;3.90;;;5.70;59.30;;;;;;5065351;28;45752;-65
2022/09/21 01:24:55;;;;;;;14.20;4.10;;;5.70;59.30;;;;;;5059987;28;46316;-64
2022/09/21 01:27:36;;;;;;;6.33;3.80;;;5.70;59.50;;;;;;5066550;28;46381;-64
2022/09/21 01:30:06;;;;;;;7.10;4.17;;;5.60;59.10;;;;;;5059551;28;46436;-64
2022/09/21 01:32:40;;;;;;;8.60;4.17;;;5.60;59.10;;;;;;5063045;28;46429;-64
2022/09/21 01:35:14;;;;;;;7.80;4.40;;;5.60;59.00;;;;;;5071868;27;46372;-64
2022/09/21 01:37:59;;;;;;;7.20;4.47;;;5.60;59.00;;;;;;5060238;27;46560;-64
2022/09/21 01:40:33;;;;;;;8.80;4.10;;;5.60;59.10;;;;;;5065205;28;47275;-64
2022/09/21 01:43:01;;;;;;;9.83;4.00;;;5.60;59.00;;;;;;5061427;28;46464;-64
2022/09/21 01:45:31;;;;;;;10.10;4.17;;;5.50;59.00;;;;;;5063961;28;46502;-64
2022/09/21 01:47:59;;;;;;;6.20;4.07;;;5.50;59.10;;;;;;5066334;28;46291;-65
2022/09/21 01:50:30;;;;;;;5.10;3.43;;;5.50;59.30;;;;;;5065745;28;46467;-64
2022/09/21 01:53:02;;;;;;;8.60;3.70;;;5.40;59.30;;;;;;5054995;28;46307;-64
2022/09/21 01:55:37;;;;;;;6.67;3.23;;;5.40;59.40;;;;;;5066543;28;46442;-65
2022/09/21 01:58:20;;;;;;;4.40;2.80;;;5.30;59.40;;;;;;5068228;28;46433;-65
2022/09/21 02:00:49;;;;;;;7.00;3.70;;;5.20;59.50;;;;;;5058859;28;48268;-62
2022/09/21 02:03:28;;;;;;;7.10;3.63;;;5.20;59.60;;;;;;5061181;28;46313;-64
2022/09/21 02:05:54;;;;;;;6.93;3.47;;;5.20;59.60;;;;;;5061180;28;46398;-65
2022/09/21 02:08:20;;;;;;;5.40;3.37;;;5.10;59.40;;;;;;5061109;28;46721;-65
2022/09/21 02:10:51;;;;;;;7.33;4.27;;;5.10;59.50;;;;;;5058361;28;46505;-64
2022/09/21 02:13:19;;;;;;;6.53;3.70;;;5.10;59.50;;;;;;5063689;28;46239;-65
2022/09/21 02:15:54;;;;;;;6.10;4.30;;;5.10;59.50;;;;;;5060797;28;46297;-64
2022/09/21 02:18:39;;;;;;;8.03;3.77;;;5.10;59.50;;;;;;5057972;28;46418;-63
2022/09/21 02:21:12;;;;;;;8.63;3.90;;;5.10;59.50;;;;;;5058138;28;46490;-64
2022/09/21 02:24:21;;;;;;;8.70;3.83;;;5.10;59.50;;;;;;5065690;28;46364;-64
2022/09/21 02:27:01;;;;;;;5.83;3.40;;;5.10;59.60;;;;;;5023272;28;46316;-63
2022/09/21 02:29:42;;;;;;;11.47;4.37;;;5.10;59.60;;;;;;5056096;28;46524;-63
2022/09/21 02:32:15;;;;;;;8.43;4.10;;;5.10;59.60;;;;;;5067750;28;46373;-63
2022/09/21 02:34:48;;;;;;;6.67;4.40;;;5.10;59.50;;;;;;5057350;28;46509;-63
2022/09/21 02:37:38;;;;;;;7.40;3.53;;;5.10;59.60;;;;;;5065267;28;46582;-65
2022/09/21 02:40:29;;;;;;;8.47;4.07;;;5.00;59.40;;;;;;5057263;28;46314;-64
2022/09/21 02:43:20;;;;;;;7.67;3.93;;;5.00;59.50;;;;;;5060618;28;46343;-65
2022/09/21 02:46:03;;;;;;;18.37;3.80;;;5.00;59.50;;;;;;5056420;28;46348;-64
2022/09/21 02:48:37;;;;;;;6.07;3.37;;;5.00;59.60;;;;;;5057080;28;46345;-65
2022/09/21 02:51:14;;;;;;;5.33;2.87;;;5.00;59.60;;;;;;5061779;28;46586;-63
2022/09/21 02:53:41;;;;;;;8.57;3.70;;;4.90;59.50;;;;;;5064737;28;47180;-64
2022/09/21 02:56:08;;;;;;;7.47;4.00;;;4.90;59.50;;;;;;5061427;28;46407;-64
2022/09/21 02:58:40;;;;;;;9.30;3.67;;;4.90;59.70;;;;;;5058725;28;46234;-64
2022/09/21 03:01:09;;;;;;;4.60;2.83;;;4.80;59.90;;;;;;5062289;28;46333;-64
2022/09/21 03:03:35;;;;;;;7.73;3.20;;;4.70;60.00;;;;;;5068828;28;47185;-64
2022/09/21 03:06:01;;;;;;;4.43;3.27;;;4.70;60.00;;;;;;5069488;28;46582;-62
2022/09/21 03:08:27;;;;;;;6.33;3.30;;;4.70;60.10;;;;;;5058400;28;46442;-63
2022/09/21 03:10:53;;;;;;;5.60;3.17;;;4.60;60.00;;;;;;5063271;28;46406;-64
2022/09/21 03:13:19;;;;;;;5.10;3.10;;;4.60;60.10;;;;;;5058958;28;47134;-64
2022/09/21 03:15:45;;;;;;;6.50;3.00;;;4.60;60.10;;;;;;5062609;27;46399;-64
2022/09/21 03:18:11;;;;;;;10.57;3.10;;;4.50;60.20;;;;;;5062389;28;46426;-64
2022/09/21 03:20:46;;;;;;;8.80;3.43;;;4.50;60.40;;;;;;5070932;27;45875;-64
2022/09/21 03:23:12;;;;;;;6.00;3.47;;;4.50;60.30;;;;;;5056808;28;46248;-64
2022/09/21 03:25:38;;;;;;;7.63;3.07;;;4.50;60.20;;;;;;5061741;28;46336;-63
2022/09/21 03:28:04;;;;;;;5.63;2.90;;;4.50;60.30;;;;;;5060415;28;46482;-65
2022/09/21 03:30:31;;;;;;;6.13;4.30;;;4.40;60.30;;;;;;5057780;28;46486;-65
2022/09/21 03:32:57;;;;;;;6.03;4.40;;;4.40;60.40;;;;;;5056969;28;47218;-65
2022/09/21 03:35:25;;;;;;;9.70;5.80;;;4.40;60.60;;;;;;5061094;28;46962;-64
2022/09/21 03:37:51;;;;;;;14.00;5.20;;;4.30;60.50;;;;;;5059756;28;46439;-64
2022/09/21 03:40:18;;;;;;;9.23;4.87;;;4.30;60.50;;;;;;5060428;28;46424;-65
2022/09/21 03:42:44;;;;;;;6.17;4.20;;;4.40;60.60;;;;;;5060923;28;46516;-64
2022/09/21 03:45:11;;;;;;;7.67;3.70;;;4.40;60.40;;;;;;5057560;28;46308;-64
2022/09/21 03:47:37;;;;;;;5.70;3.47;;;4.30;60.40;;;;;;5053629;28;46324;-65
2022/09/21 03:50:04;;;;;;;8.57;4.53;;;4.30;60.50;;;;;;5065878;28;46324;-65
2022/09/21 03:52:30;;;;;;;8.90;4.40;;;4.30;60.40;;;;;;5059836;28;47032;-64
2022/09/21 03:54:56;;;;;;;7.43;4.67;;;4.30;60.40;;;;;;5060507;28;46274;-65
2022/09/21 03:57:21;;;;;;;11.67;6.23;;;4.30;60.50;;;;;;5056476;28;46307;-64
2022/09/21 03:59:47;;;;;;;9.20;5.80;;;4.30;60.40;;;;;;5057820;28;46295;-65
2022/09/21 04:02:13;;;;;;;10.03;5.00;;;4.30;60.50;;;;;;5056891;27;46416;-64
2022/09/21 04:04:39;;;;;;;6.43;4.33;;;4.30;60.50;;;;;;5062729;28;46336;-64
2022/09/21 04:07:05;;;;;;;7.20;4.53;;;4.30;60.40;;;;;;5054784;28;45853;-64
2022/09/21 04:09:30;;;;;;;6.83;4.00;;;4.20;60.40;;;;;;5061802;28;45871;-64
2022/09/21 04:11:56;;;;;;;9.57;4.60;;;4.20;60.40;;;;;;5058497;28;46369;-63
2022/09/21 04:14:22;;;;;;;6.57;3.80;;;4.20;60.50;;;;;;5062322;28;46577;-64
2022/09/21 04:16:48;;;;;;;6.20;3.60;;;4.20;60.40;;;;;;5057449;28;46499;-64
2022/09/21 04:19:15;;;;;;;4.90;2.90;;;4.20;60.40;;;;;;5058480;28;46510;-64
2022/09/21 04:21:41;;;;;;;5.53;3.03;;;4.10;60.30;;;;;;5062026;28;47826;-64
2022/09/21 04:24:06;;;;;;;3.80;2.67;;;4.00;60.20;;;;;;5061938;28;46666;-64
2022/09/21 04:26:34;;;;;;;4.03;2.80;;;4.00;60.20;;;;;;5058579;28;46379;-64
2022/09/21 04:29:00;;;;;;;3.73;2.63;;;4.00;60.30;;;;;;5062999;28;46433;-65
2022/09/21 04:31:27;;;;;;;4.30;3.00;;;3.90;60.30;;;;;;5072793;28;46320;-66
2022/09/21 04:33:55;;;;;;;6.53;3.30;;;3.90;60.10;;;;;;5068428;27;46417;-66
2022/09/21 04:36:22;;;;;;;4.43;2.90;;;3.80;60.10;;;;;;5059462;28;46343;-66
2022/09/21 04:38:48;;;;;;;5.57;3.00;;;3.80;60.20;;;;;;5065006;28;46298;-65
2022/09/21 04:41:15;;;;;;;12.40;3.20;;;3.80;60.20;;;;;;5084818;27;46440;-65
2022/09/21 04:43:42;;;;;;;6.97;3.57;;;3.80;60.10;;;;;;5078354;27;46374;-65
2022/09/21 04:46:10;;;;;;;9.53;3.23;;;3.80;60.20;;;;;;5063112;28;46523;-65
2022/09/21 04:48:36;;;;;;;9.70;3.57;;;3.80;60.10;;;;;;5070663;28;46121;-64
2022/09/21 04:51:02;;;;;;;7.83;4.10;;;3.90;60.10;;;;;;5061936;28;46374;-64
2022/09/21 04:53:28;;;;;;;5.40;3.70;;;3.80;60.00;;;;;;5060703;28;46396;-65
2022/09/21 04:55:54;;;;;;;8.10;3.87;;;3.90;60.10;;;;;;5067727;28;46920;-65
2022/09/21 04:58:21;;;;;;;9.27;3.80;;;3.90;60.10;;;;;;5065148;28;46441;-65
2022/09/21 05:00:51;;;;;;;5.77;3.70;;;4.00;60.20;;;;;;5063795;28;46324;-64
2022/09/21 05:03:18;;;;;;;6.28;3.80;;;4.00;60.20;;;;;;5057541;28;46156;-65
2022/09/21 05:05:51;;;;;;;5.50;3.33;;;4.00;60.20;;;;;;5061708;28;46398;-63
2022/09/21 05:11:02;;;;;;;8.90;4.10;;;4.00;60.30;;;;;;5063512;28;46927;-64
2022/09/21 05:13:27;;;;;;;6.80;4.50;;;4.00;60.20;;;;;;5069087;28;46356;-65
2022/09/21 05:15:53;;;;;;;11.53;3.50;;;4.10;60.30;;;;;;5061632;28;46460;-65
2022/09/21 05:18:19;;;;;;;5.70;3.50;;;4.00;60.20;;;;;;5064757;28;46698;-64
2022/09/21 05:20:44;;;;;;;11.40;3.00;;;4.10;60.30;;;;;;5081469;27;46459;-65
2022/09/21 05:23:10;;;;;;;6.63;3.77;;;4.10;60.30;;;;;;5063236;28;46327;-63
2022/09/21 05:25:35;;;;;;;5.70;3.80;;;4.10;60.30;;;;;;5070909;28;46389;-64
2022/09/21 05:28:01;;;;;;;8.23;5.50;;;4.20;60.10;;;;;;5068900;28;46285;-65
2022/09/21 05:30:27;;;;;;;7.87;4.23;;;4.50;60.10;;;;;;5066693;27;46529;-64
2022/09/21 05:33:00;;;;;;;5.63;3.57;;;4.70;60.50;;;;;;5058805;28;46352;-64
2022/09/21 05:36:02;;;;;;;3.27;2.30;;;4.80;60.50;;;;;;5064028;28;46406;-64
2022/09/21 05:38:28;;;;;;;8.10;3.33;;;4.90;60.30;;;;;;5067374;28;46415;-65
2022/09/21 05:40:54;;;;;;;6.83;2.90;;;4.90;59.90;;;;;;5051707;28;47751;-64
2022/09/21 05:43:20;;;;;;;7.63;2.53;;;4.90;59.70;;;;;;5070601;28;46294;-65
2022/09/21 05:45:51;;;;;;;6.90;2.90;;;5.00;59.60;;;;;;5064407;28;46431;-64
2022/09/21 05:48:22;;;;;;;6.10;2.67;;;5.00;59.60;;;;;;5065220;28;46353;-65
2022/09/21 05:50:52;;;;;;;8.83;3.87;;;5.00;60.90;;;;;;5059779;28;46740;-65
2022/09/21 05:53:36;;;;;;;6.33;3.50;;;5.10;60.60;;;;;;5063047;28;46653;-65
2022/09/21 05:56:31;;;;;;;5.13;2.20;;;5.40;61.60;;;;;;5060394;28;46858;-63
2022/09/21 05:59:28;;;;;;;5.27;2.70;;;5.90;61.60;;;;;;5061264;28;46403;-63
2022/09/21 06:02:25;;;;;;;4.70;2.80;;;5.90;60.30;;;;;;5066935;28;47082;-63
2022/09/21 06:04:53;;;;;;;10.10;3.23;;;5.90;59.60;;;;;;5064129;28;46385;-63
2022/09/21 06:07:18;;;;;;;4.67;2.70;;;6.00;59.20;;;;;;5079272;27;46375;-65
2022/09/21 06:09:44;;;;;;;7.43;3.23;;;6.00;59.10;;;;;;5060665;28;46514;-63
2022/09/21 06:12:10;;;;;;;4.83;2.80;;;6.00;59.00;;;;;;5078876;27;46659;-64
2022/09/21 06:14:36;;;;;;;4.77;2.80;;;6.10;58.90;;;;;;5061969;28;46412;-64
2022/09/21 06:17:02;;;;;;;6.70;3.50;;;6.20;58.70;;;;;;5060417;28;45739;-64
2022/09/21 06:19:28;;;;;;;6.57;3.23;;;6.30;58.50;;;;;;5064297;28;46678;-64
2022/09/21 06:21:53;;;;;;;8.90;3.90;;;6.50;58.20;;;;;;5077141;27;47161;-64
2022/09/21 06:24:19;;;;;;;6.37;3.63;;;6.70;57.80;;;;;;5059662;28;45829;-65
2022/09/21 06:26:44;;;;;;;7.00;3.47;;;6.80;57.40;;;;;;5066555;28;46298;-65
2022/09/21 06:29:10;;;;;;;7.90;3.97;;;7.00;57.20;;;;;;5060684;28;46724;-64
2022/09/21 06:31:35;;;;;;;10.50;4.57;;;7.00;58.20;;;;;;5061129;28;46982;-64
2022/09/21 06:34:01;;;;;;;9.83;4.00;;;7.20;57.10;;;;;;5066361;27;46345;-64
2022/09/21 06:36:27;;;;;;;7.27;3.80;;;7.40;56.90;;;;;;5062828;28;46494;-64
2022/09/21 06:38:53;;;;;;;11.43;4.90;;;7.60;56.40;;;;;;5063871;28;46747;-64
2022/09/21 06:41:18;;;;;;;11.67;5.53;;;7.70;56.20;;;;;;5071084;28;47018;-63
2022/09/21 06:43:44;;;;;;;9.93;4.67;;;7.80;56.00;;;;;;5070628;28;46363;-63
2022/09/21 06:46:09;;;;;;;28.30;12.13;;;8.00;56.10;;;;;;5062062;28;46482;-63
2022/09/21 06:48:35;;;;;;;28.27;15.00;;;8.10;56.00;;;;;;5066927;28;46751;-64
2022/09/21 06:51:03;;;;;;;29.83;14.73;;;8.30;55.80;;;;;;5068964;28;47006;-64
2022/09/21 06:53:30;;;;;;;15.03;8.40;;;8.50;55.70;;;;;;5069063;27;46369;-64
2022/09/21 06:56:07;;;;;;;11.07;6.10;;;8.60;55.80;;;;;;5067790;28;46468;-65
2022/09/21 06:58:33;;;;;;;20.77;5.90;;;8.70;56.00;;;;;;5062085;28;46965;-64
2022/09/21 07:01:11;;;;;;;10.40;5.50;;;8.70;56.00;;;;;;5063607;28;47210;-64
2022/09/21 07:03:38;;;;;;;8.97;5.70;;;8.90;56.20;;;;;;5065141;28;46439;-64
2022/09/21 07:06:04;;;;;;;6.90;4.63;;;9.10;56.10;;;;;;5070398;27;46433;-64
2022/09/21 07:08:31;;;;;;;7.37;5.00;;;9.20;55.90;;;;;;5066998;28;46439;-64
2022/09/21 07:10:57;;;;;;;8.00;5.10;;;9.30;55.90;;;;;;5064988;28;46451;-64
2022/09/21 07:13:24;;;;;;;16.13;5.73;;;9.50;56.20;;;;;;5061015;28;46350;-64
2022/09/21 07:15:49;;;;;;;12.90;4.90;;;9.50;56.20;;;;;;5064875;28;46414;-64
2022/09/21 07:18:15;;;;;;;8.63;4.93;;;9.70;56.10;;;;;;5066517;28;46283;-64
2022/09/21 07:20:40;;;;;;;10.03;5.70;;;9.90;56.00;;;;;;5064576;28;46366;-64
2022/09/21 07:23:14;;;;;;;9.97;4.67;;;10.00;55.00;;;;;;5062921;27;46483;-64
2022/09/21 07:25:42;;;;;;;10.00;4.90;;;10.10;55.00;;;;;;5065670;28;45931;-64
2022/09/21 07:28:08;;;;;;;8.23;4.50;;;10.30;55.00;;;;;;5062683;28;46384;-64
2022/09/21 07:30:36;;;;;;;7.33;4.40;;;10.30;55.20;;;;;;5068012;28;46237;-64
2022/09/21 07:33:02;;;;;;;7.90;4.70;;;10.40;55.50;;;;;;5068679;28;46384;-64
2022/09/21 07:35:28;;;;;;;9.90;5.20;;;10.30;55.80;;;;;;5066243;28;47237;-64
2022/09/21 07:37:56;;;;;;;10.73;4.97;;;10.40;55.90;;;;;;5057736;28;46900;-64
2022/09/21 07:40:22;;;;;;;12.93;4.80;;;10.40;56.10;;;;;;5061599;28;46587;-64
2022/09/21 07:42:47;;;;;;;9.50;4.80;;;10.50;55.80;;;;;;5066459;28;46370;-65
2022/09/21 07:45:13;;;;;;;7.40;4.47;;;10.70;55.50;;;;;;5063819;28;46712;-64
2022/09/21 07:47:38;;;;;;;9.47;5.67;;;10.80;55.20;;;;;;5063213;27;46375;-64
2022/09/21 07:50:04;;;;;;;9.10;4.60;;;10.90;55.10;;;;;;5067506;28;48254;-64
2022/09/21 07:52:30;;;;;;;10.90;4.67;;;11.00;54.80;;;;;;5081884;27;46430;-64
2022/09/21 07:54:55;;;;;;;11.40;5.80;;;11.10;54.60;;;;;;5068066;28;46403;-64
2022/09/21 08:00:05;;;;;;;9.00;3.90;;;11.50;54.10;;;;;;5067319;28;46787;-64
2022/09/21 08:02:31;;;;;;;9.40;4.37;;;11.50;53.80;;;;;;5068609;27;46438;-63
2022/09/21 08:04:57;;;;;;;9.47;3.30;;;11.70;53.30;;;;;;5067268;28;46393;-64
2022/09/21 08:07:22;;;;;;;5.60;3.03;;;11.70;53.20;;;;;;5069761;28;46620;-64
2022/09/21 08:09:49;;;;;;;10.00;2.67;;;11.80;53.30;;;;;;5068579;28;47228;-65
2022/09/21 08:12:17;;;;;;;5.57;3.03;;;11.80;53.30;;;;;;5069131;28;45845;-65
2022/09/21 08:14:43;;;;;;;7.13;3.30;;;11.80;53.10;;;;;;5071145;28;46291;-64
2022/09/21 08:17:09;;;;;;;7.70;2.93;;;12.00;52.60;;;;;;5075456;28;46667;-65
2022/09/21 08:19:35;;;;;;;6.13;2.93;;;12.10;51.70;;;;;;5071394;28;45926;-64
2022/09/21 08:22:01;;;;;;;6.20;2.90;;;12.10;50.80;;;;;;5076087;27;46313;-64
2022/09/21 08:24:26;;;;;;;6.63;3.40;;;12.10;51.20;;;;;;5065665;28;46458;-66
2022/09/21 08:26:54;;;;;;;5.50;3.13;;;12.20;51.00;;;;;;5073393;28;46433;-66
2022/09/21 08:29:20;;;;;;;6.97;2.67;;;12.20;51.10;;;;;;5070714;27;46371;-65
2022/09/21 08:31:46;;;;;;;7.03;3.30;;;12.30;51.00;;;;;;5069965;28;46398;-64
2022/09/21 08:34:11;;;;;;;5.70;3.17;;;12.30;50.40;;;;;;5063812;28;46444;-64
2022/09/21 08:36:37;;;;;;;4.63;2.30;;;12.30;50.10;;;;;;5065198;28;46665;-64
2022/09/21 08:39:06;;;;;;;5.57;2.70;;;12.30;49.70;;;;;;5067368;28;48258;-65
2022/09/21 08:41:59;;;;;;;5.67;2.73;;;12.40;49.60;;;;;;5067636;28;46399;-65
2022/09/21 08:44:48;;;;;;;9.70;2.70;;;12.30;49.70;;;;;;5074909;28;45881;-66
2022/09/21 08:47:38;;;;;;;3.90;2.47;;;12.40;49.70;;;;;;5062979;28;46470;-66
2022/09/21 08:50:25;;;;;;;4.83;2.90;;;12.60;48.90;;;;;;5064004;28;47056;-65
2022/09/21 08:52:53;;;;;;;5.07;2.27;;;12.60;48.80;;;;;;5069680;28;46413;-65
2022/09/21 08:55:19;;;;;;;4.70;2.20;;;12.60;49.00;;;;;;5066718;28;46458;-65
2022/09/21 08:57:45;;;;;;;5.17;2.40;;;12.60;48.60;;;;;;5066760;28;46462;-65
2022/09/21 09:00:16;;;;;;;3.97;2.13;;;12.60;48.30;;;;;;5063680;28;48320;-65
2022/09/21 09:03:11;;;;;;;5.10;2.50;;;12.70;47.60;;;;;;5068781;28;46517;-66
2022/09/21 09:05:59;;;;;;;4.40;2.00;;;12.90;46.50;;;;;;5069102;28;46417;-65
2022/09/21 09:08:50;;;;;;;5.80;1.93;;;13.00;45.60;;;;;;5063044;28;46247;-65
2022/09/21 09:11:33;;;;;;;4.83;2.30;;;13.10;45.60;;;;;;5067170;28;47107;-65
2022/09/21 09:14:23;;;;;;;5.17;1.90;;;13.10;45.00;;;;;;5064969;27;46427;-66
2022/09/21 09:16:57;;;;;;;5.57;1.90;;;13.20;44.80;;;;;;5064910;28;46710;-66
2022/09/21 09:19:30;;;;;;;3.50;1.63;;;13.40;44.60;;;;;;5075027;28;46526;-66
2022/09/21 09:21:56;;;;;;;3.30;1.80;;;13.60;44.20;;;;;;5067699;28;46453;-65
2022/09/21 09:24:34;;;;;;;4.07;1.73;;;13.50;42.90;;;;;;5065682;28;45927;-65
2022/09/21 09:27:13;;;;;;;4.40;1.20;;;13.60;42.90;;;;;;5067479;28;46348;-65
2022/09/21 09:30:03;;;;;;;3.80;1.70;;;13.80;41.10;;;;;;5063012;28;46356;-65
2022/09/21 09:33:01;;;;;;;4.37;1.63;;;13.90;40.50;;;;;;5077727;27;47388;-65
2022/09/21 09:35:33;;;;;;;3.97;1.90;;;14.00;39.50;;;;;;5060198;28;46469;-65
2022/09/21 09:38:11;;;;;;;2.50;1.20;;;14.00;39.50;;;;;;5072724;28;46386;-65
2022/09/21 09:40:54;;;;;;;2.70;1.70;;;14.00;39.00;;;;;;5069361;28;46381;-66
2022/09/21 09:43:37;;;;;;;3.80;1.30;;;14.10;37.90;;;;;;5063274;28;46258;-65
2022/09/21 09:46:28;;;;;;;4.40;1.10;;;14.30;38.20;;;;;;5071111;28;46480;-65
2022/09/21 09:49:38;;;;;;;5.20;1.37;;;14.30;35.70;;;;;;5084431;27;46366;-66
2022/09/21 09:52:07;;;;;;;7.93;1.30;;;14.40;34.70;;;;;;5062328;27;46388;-66
2022/09/21 09:54:34;;;;;;;14.10;1.70;;;14.60;34.40;;;;;;5069057;28;46116;-65
2022/09/21 09:57:03;;;;;;;2.57;1.27;;;14.60;33.60;;;;;;5067728;28;46703;-65
2022/09/21 09:59:49;;;;;;;2.63;1.33;;;14.80;33.80;;;;;;5064772;28;46377;-65
2022/09/21 10:02:28;;;;;;;6.67;1.33;;;14.80;33.00;;;;;;5067232;28;46407;-66
2022/09/21 10:05:04;;;;;;;5.23;1.40;;;14.80;33.10;;;;;;5064793;28;47362;-65
2022/09/21 10:07:41;;;;;;;5.80;2.03;;;15.00;31.90;;;;;;5064599;28;46324;-66
2022/09/21 10:10:31;;;;;;;4.57;1.27;;;15.10;31.80;;;;;;5065992;28;46494;-65
2022/09/21 10:13:30;;;;;;;2.60;1.20;;;15.00;31.50;;;;;;5064078;28;46495;-66
2022/09/21 10:16:20;;;;;;;4.17;1.23;;;14.70;31.90;;;;;;5052951;28;46317;-63
2022/09/21 10:19:06;;;;;;;3.97;1.17;;;14.50;31.10;;;;;;5051483;28;46420;-63
2022/09/21 10:21:36;;;;;;;2.90;1.30;;;14.50;31.00;;;;;;5066770;28;46357;-64
2022/09/21 10:24:14;;;;;;;3.33;1.30;;;14.50;30.40;;;;;;5057262;27;46460;-65
2022/09/21 10:26:48;;;;;;;5.73;1.30;;;14.50;30.00;;;;;;5063277;28;47556;-64
2022/09/21 10:29:28;;;;;;;8.70;1.30;;;14.70;29.50;;;;;;5060893;28;46415;-64
2022/09/21 10:32:17;;;;;;;2.93;1.10;;;14.80;29.50;;;;;;5062121;28;46381;-65
2022/09/21 10:35:02;;;;;;;3.77;1.10;;;14.80;28.60;;;;;;5064097;28;46664;-64
2022/09/21 10:37:33;;;;;;;4.67;1.50;;;15.00;28.70;;;;;;5062248;28;46049;-64
2022/09/21 10:40:00;;;;;;;3.03;1.30;;;15.00;28.90;;;;;;5068132;28;46373;-64
2022/09/21 10:42:30;;;;;;;3.07;1.37;;;14.80;28.30;;;;;;5064035;28;46507;-64
2022/09/21 10:45:16;;;;;;;2.90;0.90;;;14.80;28.20;;;;;;5064051;28;46608;-65
2022/09/21 10:48:10;;;;;;;6.63;2.07;;;14.70;28.40;;;;;;5057435;28;46397;-64
2022/09/21 10:50:39;;;;;;;3.83;1.50;;;14.80;27.80;;;;;;5064248;28;46265;-64
2022/09/21 10:53:08;;;;;;;3.27;1.30;;;14.90;27.80;;;;;;5064622;28;46443;-64
2022/09/21 10:55:38;;;;;;;2.70;1.30;;;15.10;27.40;;;;;;5084391;27;46525;-65
2022/09/21 10:58:09;;;;;;;4.53;1.67;;;15.40;27.40;;;;;;5080442;27;47242;-65
2022/09/21 11:00:42;;;;;;;2.87;1.00;;;15.30;26.60;;;;;;5066304;28;46419;-64
2022/09/21 11:03:27;;;;;;;6.50;1.50;;;15.30;26.90;;;;;;5063538;28;46493;-63
2022/09/21 11:05:54;;;;;;;3.70;1.20;;;15.40;27.20;;;;;;5060800;28;46595;-64
2022/09/21 11:08:53;;;;;;;2.90;1.33;;;15.40;27.30;;;;;;5059729;28;46380;-64
2022/09/21 11:11:52;;;;;;;5.50;1.33;;;15.30;26.70;;;;;;5061749;28;46455;-65
2022/09/21 11:14:44;;;;;;;4.67;1.33;;;15.30;26.80;;;;;;5061501;28;45916;-65
2022/09/21 11:17:48;;;;;;;3.37;1.33;;;15.60;26.80;;;;;;5061341;28;45824;-64
2022/09/21 11:20:26;;;;;;;4.80;1.20;;;15.70;26.10;;;;;;5059159;28;47864;-65
2022/09/21 11:23:18;;;;;;;3.80;1.47;;;15.90;25.50;;;;;;5063848;28;46383;-64
2022/09/21 11:26:09;;;;;;;3.23;1.70;;;15.70;25.80;;;;;;5047331;27;46926;-65
2022/09/21 11:28:55;;;;;;;3.40;1.47;;;15.50;25.90;;;;;;5065666;28;46323;-64
2022/09/21 11:31:58;;;;;;;3.37;1.20;;;15.40;26.00;;;;;;5059107;28;46340;-65
2022/09/21 11:34:32;;;;;;;3.27;1.50;;;15.50;26.10;;;;;;5067645;28;46430;-65
2022/09/21 11:37:46;;;;;;;5.00;1.20;;;15.70;25.70;;;;;;5057126;28;46341;-64
2022/09/21 11:40:31;;;;;;;4.50;1.50;;;15.80;25.30;;;;;;5060389;28;46512;-65
2022/09/21 11:43:14;;;;;;;3.63;1.70;;;15.70;25.10;;;;;;5067550;28;47288;-64
2022/09/21 11:46:05;;;;;;;3.80;1.57;;;15.50;25.70;;;;;;5064465;28;46719;-64
2022/09/21 11:48:47;;;;;;;3.40;1.40;;;15.60;26.00;;;;;;5060181;28;46387;-64
2022/09/21 11:51:36;;;;;;;3.63;1.37;;;15.70;25.70;;;;;;5058367;28;46512;-64
2022/09/21 11:54:50;;;;;;;3.90;1.57;;;15.80;25.40;;;;;;5068628;28;46562;-63
2022/09/21 11:57:23;;;;;;;3.30;1.33;;;15.80;24.80;;;;;;5061023;28;46286;-64
2022/09/21 11:59:59;;;;;;;3.83;1.67;;;15.90;24.70;;;;;;5058742;28;46547;-64
2022/09/21 12:02:49;;;;;;;3.30;1.20;;;15.80;24.80;;;;;;5059973;28;46571;-64
2022/09/21 12:05:33;;;;;;;2.60;1.47;;;15.90;25.00;;;;;;5061159;28;46680;-65
2022/09/21 12:08:26;;;;;;;4.63;1.40;;;16.00;25.30;;;;;;5058401;28;46402;-64
2022/09/21 12:10:57;;;;;;;2.60;1.27;;;15.90;25.00;;;;;;5061289;28;46395;-64
2022/09/21 12:13:39;;;;;;;2.23;1.20;;;15.80;26.10;;;;;;5062878;28;46720;-65
2022/09/21 12:16:34;;;;;;;7.30;1.40;;;15.80;25.50;;;;;;5061684;28;47239;-66
2022/09/21 12:19:22;;;;;;;3.13;1.37;;;15.40;25.40;;;;;;5060611;28;46557;-66
2022/09/21 12:21:58;;;;;;;4.33;1.50;;;15.30;26.00;;;;;;5061698;28;45879;-65
2022/09/21 12:24:32;;;;;;;3.17;1.20;;;15.10;25.80;;;;;;5061385;28;46424;-66
2022/09/21 12:27:06;;;;;;;5.00;1.53;;;15.10;25.90;;;;;;5066102;28;47927;-65
2022/09/21 12:29:46;;;;;;;3.10;1.50;;;15.30;25.70;;;;;;5061276;28;46723;-65
2022/09/21 12:32:23;;;;;;;4.03;1.10;;;15.50;25.50;;;;;;5061874;28;46270;-66
2022/09/21 12:34:56;;;;;;;4.17;1.20;;;15.70;23.90;;;;;;5061326;28;46314;-64
2022/09/21 12:37:39;;;;;;;2.40;1.23;;;15.80;23.60;;;;;;5065656;28;47284;-66
2022/09/21 12:40:21;;;;;;;3.50;1.20;;;15.70;23.40;;;;;;5063228;28;46359;-66
2022/09/21 12:42:58;;;;;;;4.43;1.70;;;15.40;23.50;;;;;;5060740;28;46278;-66
2022/09/21 12:45:44;;;;;;;2.43;1.23;;;15.60;24.00;;;;;;5063782;27;47005;-66
2022/09/21 12:48:38;;;;;;;3.10;1.50;;;15.90;23.70;;;;;;5061416;28;47281;-67
2022/09/21 12:51:24;;;;;;;4.73;1.73;;;15.90;23.40;;;;;;5068446;28;46420;-66
2022/09/21 12:53:52;;;;;;;2.97;1.40;;;15.80;23.30;;;;;;5062609;28;46473;-65
2022/09/21 12:56:34;;;;;;;2.73;1.30;;;15.70;23.60;;;;;;5061508;28;46388;-66
2022/09/21 12:59:27;;;;;;;3.10;1.33;;;15.50;23.80;;;;;;5068055;28;48554;-64
2022/09/21 13:02:14;;;;;;;2.73;1.07;;;15.40;23.80;;;;;;5055390;28;46503;-65
2022/09/21 13:04:57;;;;;;;2.10;1.07;;;15.00;23.80;;;;;;5064647;28;46464;-64
2022/09/21 13:07:52;;;;;;;3.63;1.30;;;14.80;24.00;;;;;;5055231;28;46439;-64
2022/09/21 13:10:27;;;;;;;4.90;1.50;;;14.60;24.20;;;;;;5042675;28;47392;-64
2022/09/21 13:13:00;;;;;;;3.40;1.20;;;14.80;24.10;;;;;;5057186;28;46796;-64
2022/09/21 13:15:31;;;;;;;3.27;1.37;;;15.00;23.80;;;;;;5063105;28;46396;-64
2022/09/21 13:18:04;;;;;;;2.97;1.20;;;15.10;23.80;;;;;;5066309;28;45896;-64
2022/09/21 13:20:38;;;;;;;2.97;1.20;;;15.10;23.50;;;;;;5066439;28;47173;-64
2022/09/21 13:23:04;;;;;;;3.60;1.00;;;14.90;23.40;;;;;;5070469;28;46384;-64
2022/09/21 13:25:36;;;;;;;3.77;1.30;;;14.80;23.70;;;;;;5066653;28;46520;-64
2022/09/21 13:28:14;;;;;;;3.10;1.03;;;14.70;23.90;;;;;;5066301;28;46476;-64
2022/09/21 13:30:44;;;;;;;5.10;1.27;;;14.70;23.90;;;;;;5068001;28;46573;-65